createdAt,value
2019-03-18T00:00:50.299Z,3.09
2019-03-18T00:03:19.639Z,3.01
2019-03-18T00:05:49.032Z,2.93
2019-03-18T00:08:18.441Z,2.86
2019-03-18T00:10:48.219Z,2.85
2019-03-18T00:13:17.619Z,2.88
2019-03-18T00:30:36.001Z,2.66
2019-03-18T00:33:05.379Z,2.54
2019-03-18T00:35:34.999Z,2.60
2019-03-18T00:38:04.744Z,2.59
2019-03-18T00:40:34.207Z,2.62
2019-03-18T00:43:03.763Z,2.56
2019-03-18T00:45:33.217Z,2.61
2019-03-18T00:48:02.655Z,2.56
2019-03-18T00:50:32.446Z,2.55
2019-03-18T00:53:02.587Z,2.55
2019-03-18T00:55:32.013Z,2.45
2019-03-18T00:58:01.764Z,2.44
2019-03-18T01:00:33.515Z,2.47
2019-03-18T01:03:02.903Z,2.52
2019-03-18T01:05:32.358Z,2.19
2019-03-18T01:08:01.755Z,2.75
2019-03-18T01:10:31.165Z,2.70
2019-03-18T01:13:00.616Z,2.77
2019-03-18T01:15:30.016Z,2.75
2019-03-18T01:17:59.349Z,2.76
2019-03-18T01:20:28.631Z,2.76
2019-03-18T01:22:57.892Z,2.80
2019-03-18T01:25:27.357Z,2.79
2019-03-18T01:27:57.054Z,2.81
2019-03-18T01:30:26.428Z,2.85
2019-03-18T01:32:56.972Z,2.90
2019-03-18T01:35:26.570Z,2.94
2019-03-18T01:38:15.325Z,2.99
2019-03-18T01:40:45.285Z,2.99
2019-03-18T01:43:14.841Z,3.00
2019-03-18T01:45:44.295Z,3.00
2019-03-18T01:48:14.235Z,2.97
2019-03-18T01:53:46.628Z,2.91
2019-03-18T01:56:16.165Z,2.88
2019-03-18T01:58:46.428Z,2.89
2019-03-18T02:01:16.077Z,2.85
2019-03-18T02:03:46.503Z,2.80
2019-03-18T02:06:16.003Z,2.51
2019-03-18T02:11:34.481Z,2.93
2019-03-18T02:14:03.909Z,2.95
2019-03-18T02:22:14.365Z,2.87
2019-03-18T02:24:46.521Z,2.86
2019-03-18T02:27:16.274Z,2.85
2019-03-18T02:29:45.791Z,2.89
2019-03-18T02:46:26.627Z,2.71
2019-03-18T02:49:21.117Z,2.68
2019-03-18T02:51:52.908Z,2.69
2019-03-18T02:54:35.547Z,2.67
2019-03-18T02:57:04.765Z,2.63
2019-03-18T02:59:34.025Z,2.58
2019-03-18T03:02:03.306Z,2.59
2019-03-18T03:04:32.602Z,2.64
2019-03-18T03:07:01.838Z,2.72
2019-03-18T03:09:31.115Z,2.77
2019-03-18T03:12:00.765Z,2.81
2019-03-18T03:14:30.047Z,2.81
2019-03-18T03:16:59.872Z,2.80
2019-03-18T03:19:29.158Z,2.81
2019-03-18T03:21:58.478Z,2.85
2019-03-18T03:24:28.096Z,2.87
2019-03-18T03:26:57.369Z,2.89
2019-03-18T03:29:26.688Z,2.90
2019-03-18T03:31:55.991Z,2.88
2019-03-18T03:34:25.259Z,2.85
2019-03-18T03:36:54.889Z,2.85
2019-03-18T03:39:24.166Z,2.82
2019-03-18T03:41:53.443Z,2.76
2019-03-18T03:44:22.728Z,2.76
2019-03-18T03:46:52.308Z,2.77
2019-03-18T03:49:21.599Z,2.83
2019-03-18T03:51:50.849Z,2.83
2019-03-18T03:54:20.430Z,2.84
2019-03-18T03:56:49.843Z,2.84
2019-03-18T03:59:19.287Z,2.83
2019-03-18T04:01:48.653Z,2.85
2019-03-18T04:04:17.925Z,2.89
2019-03-18T04:06:47.185Z,2.90
2019-03-18T04:09:16.690Z,2.95
2019-03-18T04:11:45.948Z,2.97
2019-03-18T04:14:15.250Z,3.00
2019-03-18T04:16:55.886Z,3.00
2019-03-18T04:19:15.547Z,3.04
2019-03-18T04:21:44.854Z,3.09
2019-03-18T04:24:14.068Z,3.17
2019-03-18T04:26:43.328Z,3.23
2019-03-18T04:29:12.860Z,3.29
2019-03-18T04:31:42.173Z,3.33
2019-03-18T04:34:11.408Z,3.40
2019-03-18T04:36:40.669Z,3.44
2019-03-18T04:39:09.979Z,3.48
2019-03-18T04:41:39.330Z,3.52
2019-03-18T04:44:09.002Z,3.56
2019-03-18T04:46:38.344Z,3.62
2019-03-18T04:49:07.594Z,3.73
2019-03-18T04:51:36.846Z,3.83
2019-03-18T04:54:06.123Z,3.92
2019-03-18T04:56:35.370Z,3.99
2019-03-18T04:59:04.618Z,4.07
2019-03-18T05:01:33.857Z,4.13
2019-03-18T05:04:03.125Z,4.18
2019-03-18T05:06:32.376Z,4.20
2019-03-18T05:09:01.644Z,4.25
2019-03-18T05:11:31.287Z,4.29
2019-03-18T05:14:00.820Z,4.31
2019-03-18T05:16:30.048Z,4.33
2019-03-18T05:18:59.365Z,4.40
2019-03-18T05:21:28.891Z,4.41
2019-03-18T05:23:58.171Z,4.42
2019-03-18T05:26:27.660Z,4.42
2019-03-18T05:28:56.945Z,4.43
2019-03-18T05:31:26.259Z,4.44
2019-03-18T05:33:55.529Z,4.48
2019-03-18T05:36:24.819Z,4.49
2019-03-18T05:38:54.127Z,4.51
2019-03-18T05:41:23.442Z,4.52
2019-03-18T05:43:52.704Z,4.52
2019-03-18T05:46:21.937Z,4.54
2019-03-18T05:48:51.514Z,4.55
2019-03-18T05:51:21.057Z,4.53
2019-03-18T05:53:50.335Z,4.55
2019-03-18T05:56:19.872Z,4.56
2019-03-18T05:58:49.139Z,4.60
2019-03-18T06:01:18.361Z,4.65
2019-03-18T06:03:47.644Z,4.65
2019-03-18T06:06:17.293Z,4.68
2019-03-18T06:08:46.939Z,4.68
2019-03-18T06:11:16.441Z,4.68
2019-03-18T06:13:45.712Z,4.64
2019-03-18T06:16:15.274Z,4.65
2019-03-18T06:18:44.598Z,4.65
2019-03-18T06:21:13.933Z,4.66
2019-03-18T06:23:43.635Z,4.67
2019-03-18T06:26:12.924Z,4.66
2019-03-18T06:28:42.581Z,4.67
2019-03-18T06:31:12.165Z,4.66
2019-03-18T06:33:41.493Z,4.64
2019-03-18T06:36:10.792Z,4.65
2019-03-18T06:38:40.117Z,4.66
2019-03-18T06:41:09.385Z,4.69
2019-03-18T06:43:38.675Z,4.65
2019-03-18T06:46:28.121Z,4.62
2019-03-18T06:48:57.472Z,4.64
2019-03-18T06:51:26.854Z,4.69
2019-03-18T06:53:56.133Z,4.69
2019-03-18T06:56:25.399Z,4.70
2019-03-18T06:58:54.690Z,4.68
2019-03-18T07:01:24.324Z,4.64
2019-03-18T07:03:53.610Z,4.62
2019-03-18T07:06:22.876Z,4.68
2019-03-18T07:08:52.148Z,4.77
2019-03-18T07:11:21.778Z,4.74
2019-03-18T07:13:51.336Z,4.71
2019-03-18T07:16:20.615Z,4.76
2019-03-18T07:18:49.873Z,4.91
2019-03-18T07:21:19.196Z,5.06
2019-03-18T07:23:48.447Z,5.34
2019-03-18T07:26:17.702Z,5.48
2019-03-18T07:28:46.957Z,5.40
2019-03-18T07:31:16.225Z,5.28
2019-03-18T07:33:45.521Z,5.30
2019-03-18T07:36:14.860Z,5.45
2019-03-18T07:38:44.388Z,5.54
2019-03-18T07:41:13.671Z,5.54
2019-03-18T07:43:42.926Z,5.59
2019-03-18T07:46:12.204Z,5.64
2019-03-18T07:48:41.805Z,5.75
2019-03-18T07:51:11.070Z,5.82
2019-03-18T07:53:40.579Z,5.79
2019-03-18T07:56:09.848Z,5.88
2019-03-18T07:58:39.183Z,5.96
2019-03-18T08:01:08.491Z,6.02
2019-03-18T08:03:37.767Z,6.13
2019-03-18T08:06:07.025Z,6.19
2019-03-18T08:08:36.811Z,6.16
2019-03-18T08:11:06.157Z,6.13
2019-03-18T08:13:35.688Z,5.97
2019-03-18T08:16:05.355Z,5.88
2019-03-18T08:18:43.036Z,6.05
2019-03-18T08:21:06.395Z,6.20
2019-03-18T08:23:36.037Z,6.29
2019-03-18T08:26:05.592Z,6.37
2019-03-18T08:28:35.181Z,6.45
2019-03-18T08:31:04.455Z,6.80
2019-03-18T08:33:33.939Z,6.96
2019-03-18T08:36:03.539Z,7.06
2019-03-18T08:44:02.201Z,7.01
2019-03-18T08:46:34.919Z,6.97
2019-03-18T08:53:03.532Z,7.00
2019-03-18T08:55:32.863Z,7.26
2019-03-18T08:58:02.728Z,7.29
2019-03-18T09:00:32.172Z,7.23
2019-03-18T09:03:01.877Z,7.29
2019-03-18T09:05:31.649Z,7.50
2019-03-18T09:08:02.762Z,7.62
2019-03-18T09:10:51.030Z,7.75
2019-03-18T09:13:20.767Z,7.75
2019-03-18T09:15:50.354Z,7.27
2019-03-18T09:18:38.727Z,7.15
2019-03-18T09:21:08.359Z,7.20
2019-03-18T09:23:37.777Z,7.37
2019-03-18T09:26:07.204Z,7.70
2019-03-18T09:28:36.634Z,7.84
2019-03-18T09:31:06.065Z,7.56
2019-03-18T09:33:35.864Z,7.35
2019-03-18T09:36:05.686Z,7.35
2019-03-18T09:38:35.047Z,7.18
2019-03-18T09:41:04.376Z,7.52
2019-03-18T09:43:34.151Z,7.04
2019-03-18T09:46:03.602Z,6.41
2019-03-18T09:48:33.302Z,6.03
2019-03-18T09:51:02.669Z,5.96
2019-03-18T09:53:32.456Z,5.27
2019-03-18T09:56:01.809Z,5.68
2019-03-18T09:58:31.481Z,5.66
2019-03-18T10:01:00.911Z,5.94
2019-03-18T10:03:30.927Z,5.89
2019-03-18T10:06:00.648Z,5.75
2019-03-18T10:08:29.982Z,5.64
2019-03-18T10:10:59.337Z,5.56
2019-03-18T10:13:28.915Z,5.63
2019-03-18T10:15:58.265Z,5.91
2019-03-18T10:18:27.576Z,6.07
2019-03-18T10:20:57.191Z,6.05
2019-03-18T10:23:26.698Z,5.49
2019-03-18T10:25:56.318Z,4.62
2019-03-18T10:28:25.945Z,4.38
2019-03-18T10:30:55.236Z,4.28
2019-03-18T10:33:24.530Z,4.05
2019-03-18T10:35:54.403Z,4.43
2019-03-18T10:38:23.836Z,4.65
2019-03-18T10:40:53.400Z,4.89
2019-03-18T10:43:23.012Z,4.52
2019-03-18T10:45:52.307Z,4.87
2019-03-18T10:48:21.706Z,4.76
2019-03-18T10:50:50.995Z,4.75
2019-03-18T10:53:20.564Z,4.94
2019-03-18T10:55:50.163Z,5.18
2019-03-18T10:58:19.553Z,5.27
2019-03-18T11:00:48.926Z,5.37
2019-03-18T11:03:18.268Z,5.61
2019-03-18T11:05:47.549Z,5.99
2019-03-18T11:10:52.065Z,6.64
2019-03-18T11:13:21.374Z,6.80
2019-03-18T11:15:50.651Z,7.00
2019-03-18T11:18:20.002Z,6.90
2019-03-18T11:20:49.311Z,7.04
2019-03-18T11:23:18.625Z,6.98
2019-03-18T11:25:47.901Z,6.88
2019-03-18T11:28:17.221Z,7.00
2019-03-18T11:30:46.869Z,7.16
2019-03-18T11:33:16.130Z,7.29
2019-03-18T11:35:45.541Z,7.49
2019-03-18T11:38:15.177Z,7.46
2019-03-18T11:40:44.453Z,7.39
2019-03-18T11:43:14.048Z,7.55
2019-03-18T11:45:43.368Z,7.99
2019-03-18T11:48:12.653Z,8.03
2019-03-18T11:50:41.928Z,8.08
2019-03-18T11:53:14.526Z,8.27
2019-03-18T11:55:42.201Z,8.37
2019-03-18T11:58:11.437Z,8.26
2019-03-18T12:00:40.702Z,7.81
2019-03-18T12:03:10.272Z,7.08
2019-03-18T12:05:39.948Z,7.04
2019-03-18T12:08:09.263Z,7.20
2019-03-18T12:10:38.894Z,7.22
2019-03-18T12:13:27.232Z,7.32
2019-03-18T12:15:56.507Z,7.58
2019-03-18T12:18:25.797Z,8.09
2019-03-18T12:20:55.126Z,8.42
2019-03-18T12:23:24.893Z,8.38
2019-03-18T12:25:54.169Z,8.03
2019-03-18T12:28:23.763Z,7.79
2019-03-18T12:30:53.030Z,7.89
2019-03-18T12:33:23.288Z,8.01
2019-03-18T12:35:52.588Z,8.13
2019-03-18T12:38:22.420Z,8.40
2019-03-18T12:40:51.708Z,8.53
2019-03-18T12:43:20.940Z,8.82
2019-03-18T12:45:50.225Z,8.78
2019-03-18T12:48:19.478Z,8.72
2019-03-18T12:50:55.665Z,8.62
2019-03-18T12:53:19.973Z,8.70
2019-03-18T12:55:49.268Z,8.75
2019-03-18T12:58:18.672Z,8.81
2019-03-18T13:00:47.972Z,9.04
2019-03-18T13:03:17.204Z,9.18
2019-03-18T13:05:46.465Z,9.12
2019-03-18T13:08:15.677Z,9.22
2019-03-18T13:10:44.939Z,9.34
2019-03-18T13:13:14.185Z,9.50
2019-03-18T13:15:43.823Z,9.69
2019-03-18T13:18:13.420Z,9.84
2019-03-18T13:20:42.771Z,9.85
2019-03-18T13:23:12.047Z,9.83
2019-03-18T13:25:41.388Z,10.56
2019-03-18T13:28:10.618Z,10.56
2019-03-18T13:30:39.876Z,10.00
2019-03-18T13:33:09.585Z,9.66
2019-03-18T13:35:39.076Z,9.38
2019-03-18T13:38:08.370Z,9.00
2019-03-18T13:40:37.664Z,8.14
2019-03-18T13:43:06.939Z,7.61
2019-03-18T13:45:36.485Z,7.36
2019-03-18T13:48:05.812Z,7.47
2019-03-18T13:50:35.001Z,7.73
2019-03-18T13:53:04.253Z,7.84
2019-03-18T13:55:33.569Z,8.00
2019-03-18T13:58:03.139Z,8.72
2019-03-18T14:00:32.509Z,9.63
2019-03-18T14:03:01.855Z,9.77
2019-03-18T14:05:31.113Z,9.63
2019-03-18T14:08:01.365Z,9.35
2019-03-18T14:10:50.422Z,10.22
2019-03-18T14:13:19.817Z,11.21
2019-03-18T14:15:49.308Z,11.70
2019-03-18T14:18:18.605Z,11.87
2019-03-18T14:20:47.827Z,11.25
2019-03-18T14:23:17.128Z,11.21
2019-03-18T14:25:46.358Z,11.46
2019-03-18T14:28:15.588Z,10.24
2019-03-18T14:30:44.824Z,9.70
2019-03-18T14:33:14.048Z,9.03
2019-03-18T14:35:43.555Z,8.59
2019-03-18T14:38:13.067Z,8.02
2019-03-18T14:40:42.270Z,7.64
2019-03-18T14:43:11.664Z,7.63
2019-03-18T14:45:41.168Z,7.92
2019-03-18T14:48:10.444Z,7.97
2019-03-18T14:50:39.685Z,8.05
2019-03-18T14:53:09.204Z,8.03
2019-03-18T14:55:38.478Z,7.98
2019-03-18T14:58:07.757Z,7.80
2019-03-18T15:00:37.002Z,7.95
2019-03-18T15:03:06.362Z,8.08
2019-03-18T15:08:23.869Z,9.56
2019-03-18T15:10:53.444Z,11.27
2019-03-18T15:13:30.719Z,12.13
2019-03-18T15:15:53.698Z,12.36
2019-03-18T15:18:22.982Z,12.19
2019-03-18T15:20:52.594Z,10.55
2019-03-18T15:23:22.018Z,9.59
2019-03-18T15:25:52.253Z,10.79
2019-03-18T15:28:21.974Z,11.39
2019-03-18T15:30:51.312Z,11.86
2019-03-18T15:33:20.620Z,11.34
2019-03-18T15:35:49.988Z,10.43
2019-03-18T15:38:19.325Z,9.64
2019-03-18T15:40:48.791Z,8.99
2019-03-18T15:43:18.514Z,8.77
2019-03-18T15:45:47.853Z,8.74
2019-03-18T15:48:17.478Z,8.68
2019-03-18T15:50:47.260Z,8.83
2019-03-18T15:53:17.394Z,9.16
2019-03-18T15:55:47.053Z,9.34
2019-03-18T15:58:16.356Z,9.67
2019-03-18T16:00:45.735Z,10.17
2019-03-18T16:03:15.384Z,10.91
2019-03-18T16:05:45.147Z,11.24
2019-03-18T16:08:14.828Z,10.67
2019-03-18T16:11:03.209Z,9.97
2019-03-18T16:13:32.455Z,9.53
2019-03-18T16:16:40.255Z,9.12
2019-03-18T16:19:09.744Z,9.01
2019-03-18T16:21:39.084Z,8.89
2019-03-18T16:24:27.415Z,8.79
2019-03-18T16:26:56.664Z,8.64
2019-03-18T16:29:26.467Z,8.52
2019-03-18T16:31:56.274Z,8.45
2019-03-18T16:34:26.514Z,8.44
2019-03-18T16:36:56.123Z,8.40
2019-03-18T16:39:25.859Z,8.53
2019-03-18T16:41:55.515Z,8.61
2019-03-18T16:44:24.919Z,9.56
2019-03-18T16:46:54.524Z,9.97
2019-03-18T16:49:43.281Z,10.02
2019-03-18T16:52:13.109Z,9.93
2019-03-18T16:54:57.651Z,9.11
2019-03-18T16:57:27.214Z,8.59
2019-03-18T16:59:56.521Z,8.22
2019-03-18T17:02:25.933Z,8.12
2019-03-18T17:04:55.350Z,8.02
2019-03-18T17:07:24.745Z,7.96
2019-03-18T17:09:54.166Z,7.88
2019-03-18T17:12:23.587Z,7.83
2019-03-18T17:14:53.244Z,7.75
2019-03-18T17:17:22.891Z,7.69
2019-03-18T17:19:52.217Z,7.48
2019-03-18T17:22:32.838Z,7.23
2019-03-18T17:25:14.191Z,7.25
2019-03-18T17:27:43.945Z,7.30
2019-03-18T17:30:33.465Z,7.03
2019-03-18T17:33:02.919Z,7.00
2019-03-18T17:35:32.251Z,6.84
2019-03-18T17:38:02.741Z,6.94
2019-03-18T17:40:31.967Z,6.71
2019-03-18T17:45:53.043Z,6.47
2019-03-18T17:48:22.746Z,6.45
2019-03-18T17:50:52.425Z,6.37
2019-03-18T17:53:22.191Z,6.36
2019-03-18T17:55:51.928Z,6.47
2019-03-18T17:58:21.958Z,6.01
2019-03-18T18:00:53.245Z,6.35
2019-03-18T18:03:23.281Z,5.88
2019-03-18T18:05:52.940Z,6.17
2019-03-18T18:08:23.085Z,6.08
2019-03-18T18:10:53.567Z,6.01
2019-03-18T18:13:23.463Z,5.99
2019-03-18T18:15:53.511Z,5.95
2019-03-18T18:18:23.012Z,5.93
2019-03-18T18:20:52.554Z,5.85
2019-03-18T18:23:22.078Z,5.84
2019-03-18T18:25:51.531Z,5.61
2019-03-18T18:28:40.228Z,5.35
2019-03-18T18:31:28.894Z,5.37
2019-03-18T18:34:18.187Z,5.39
2019-03-18T18:36:47.811Z,5.52
2019-03-18T18:39:17.900Z,5.35
2019-03-18T18:41:47.951Z,5.59
2019-03-18T18:44:17.273Z,5.48
2019-03-18T18:46:47.270Z,5.40
2019-03-18T18:49:17.222Z,5.31
2019-03-18T18:52:06.386Z,5.28
2019-03-18T18:54:36.183Z,5.23
2019-03-18T18:57:25.464Z,5.04
2019-03-18T18:59:54.916Z,4.95
2019-03-18T19:02:24.484Z,4.84
2019-03-18T19:04:54.249Z,4.78
2019-03-18T19:07:23.670Z,4.76
2019-03-18T19:09:53.825Z,4.74
2019-03-18T19:12:23.577Z,4.69
2019-03-18T19:14:53.554Z,4.72
2019-03-18T19:17:23.156Z,4.71
2019-03-18T19:19:52.867Z,4.71
2019-03-18T19:22:22.730Z,4.68
2019-03-18T19:24:52.493Z,4.69
2019-03-18T19:27:21.886Z,4.71
2019-03-18T19:29:51.223Z,4.64
2019-03-18T19:32:20.990Z,4.55
2019-03-18T19:35:09.650Z,4.47
2019-03-18T19:37:40.003Z,4.48
2019-03-18T19:40:11.025Z,4.29
2019-03-18T19:42:40.679Z,4.17
2019-03-18T19:45:11.817Z,4.07
2019-03-18T19:47:42.267Z,4.02
2019-03-18T19:50:14.540Z,4.00
2019-03-18T19:53:03.161Z,3.86
2019-03-18T19:55:51.906Z,3.76
2019-03-18T19:58:29.096Z,3.82
2019-03-18T20:00:58.734Z,3.65
2019-03-18T20:03:28.188Z,3.57
2019-03-18T20:05:57.839Z,3.39
2019-03-18T20:08:27.441Z,3.31
2019-03-18T20:10:57.258Z,3.55
2019-03-18T20:13:27.155Z,3.84
2019-03-18T20:15:56.987Z,3.96
2019-03-18T20:18:26.804Z,3.93
2019-03-18T20:20:57.043Z,3.88
2019-03-18T20:23:28.091Z,3.82
2019-03-18T20:25:58.782Z,3.79
2019-03-18T20:28:48.315Z,3.75
2019-03-18T20:31:37.726Z,3.71
2019-03-18T20:34:07.431Z,3.64
2019-03-18T20:36:36.928Z,3.62
2019-03-18T20:39:08.115Z,3.58
2019-03-18T20:41:37.561Z,3.57
2019-03-18T20:44:26.218Z,3.50
2019-03-18T20:46:55.625Z,3.37
2019-03-18T20:49:24.984Z,3.24
2019-03-18T20:51:54.394Z,3.34
2019-03-18T20:54:23.760Z,3.23
2019-03-18T20:56:53.494Z,3.50
2019-03-18T20:59:42.239Z,3.43
2019-03-18T21:02:11.584Z,3.41
2019-03-18T21:04:41.282Z,3.32
2019-03-18T21:07:10.614Z,3.21
2019-03-18T21:09:39.991Z,2.98
2019-03-18T21:12:09.335Z,2.75
2019-03-18T21:14:39.075Z,2.50
2019-03-18T21:17:08.422Z,2.64
2019-03-18T21:19:37.824Z,2.47
2019-03-18T21:22:07.171Z,2.37
2019-03-18T21:24:36.951Z,2.27
2019-03-18T21:27:06.297Z,2.22
2019-03-18T21:29:54.962Z,2.18
2019-03-18T21:32:24.642Z,2.14
2019-03-18T21:35:13.541Z,2.10
2019-03-18T21:37:43.132Z,2.02
2019-03-18T21:40:13.474Z,1.95
2019-03-18T21:43:01.753Z,1.89
2019-03-18T21:45:31.041Z,1.88
2019-03-18T21:48:00.295Z,1.78
2019-03-18T21:50:29.549Z,1.73
2019-03-18T21:52:59.202Z,1.72
2019-03-18T21:55:28.479Z,1.59
2019-03-18T21:57:58.003Z,1.66
2019-03-18T22:00:27.386Z,1.56
2019-03-18T22:02:56.634Z,1.53
2019-03-18T22:05:25.923Z,1.53
2019-03-18T22:07:55.235Z,1.52
2019-03-18T22:10:24.970Z,1.47
2019-03-18T22:12:54.680Z,1.45
2019-03-18T22:15:24.056Z,1.39
2019-03-18T22:17:53.417Z,1.35
2019-03-18T22:21:02.101Z,1.31
2019-03-18T22:23:44.301Z,1.84
2019-03-18T22:26:13.650Z,2.28
2019-03-18T22:28:43.362Z,2.35
2019-03-18T22:31:12.662Z,2.07
2019-03-18T22:33:41.950Z,2.37
2019-03-18T22:36:30.691Z,2.35
2019-03-18T22:39:00.041Z,2.35
2019-03-18T22:41:30.361Z,2.32
2019-03-18T22:44:01.261Z,2.28
2019-03-18T22:46:30.616Z,2.27
2019-03-18T22:48:59.986Z,2.19
2019-03-18T22:51:28.828Z,2.11
2019-03-18T22:53:58.126Z,2.09
2019-03-18T22:56:27.951Z,2.17
2019-03-18T22:59:16.602Z,2.18
2019-03-18T23:01:46.653Z,2.17
2019-03-18T23:04:16.138Z,2.17
2019-03-18T23:06:45.602Z,2.03
2019-03-18T23:09:15.091Z,1.85
2019-03-18T23:11:47.620Z,1.73
2019-03-18T23:14:17.101Z,1.67
2019-03-18T23:16:46.589Z,1.95
2019-03-18T23:19:16.118Z,1.99
2019-03-18T23:21:45.623Z,1.94
2019-03-18T23:24:15.065Z,1.89
2019-03-18T23:26:44.990Z,1.82
2019-03-18T23:29:14.507Z,1.76
2019-03-18T23:31:44.041Z,1.77
2019-03-18T23:34:13.668Z,1.82
2019-03-18T23:36:43.706Z,1.85
2019-03-18T23:39:13.259Z,1.85
2019-03-18T23:41:42.735Z,1.86
2019-03-18T23:44:12.307Z,1.85
2019-03-18T23:46:42.084Z,1.83
2019-03-18T23:49:11.559Z,1.85
2019-03-18T23:51:41.089Z,1.86
2019-03-18T23:54:10.639Z,1.89
2019-03-18T23:56:40.654Z,1.48
2019-03-18T23:59:10.927Z,1.92
